Latest Weather Observations for Mangalore

IDV60801

Issued at 9:02 pm EDT Friday 24 February 2017 (issued every 30 minutes, with the page automatically refreshed every 10 minutes)

About weather observations | Map of weather stations | Latest weather observations for VIC | Other Formats
Station Details ID: 088109 Name: MANGALORE AIRPORT Lat: -36.89 Lon: 145.19 Height: 140.8 m
Data from the previous 72 hours. | See also: Recent months at Mangalore
Date/Time
EDT
Temp
°C
App
Temp
°C
Dew
Point
°C
Rel
Hum
%
Delta-T
°C
Wind Press
QNH
hPa
Press
MSL
hPa
Rain since
9am
mm
Dir  Spd
km/h
Gust
km/h
Spd
kts
Gust
kts
24/09:00pm 15.9 9.1 7.1 56 4.4 S 32 43 17 23 1022.6 1022.1 0.0
24/08:37pm 16.1 9.5 7.6 57 4.3 S 32 50 17 27 1022.5 1022.0 0.0
24/08:30pm 16.3 9.5 7.8 57 4.3 S 33 46 18 25 1022.5 1022.0 0.0
24/08:00pm 16.8 10.6 8.0 56 4.5 S 30 41 16 22 1022.2 1021.7 0.0
24/07:30pm 17.6 10.4 7.6 52 5.1 SSE 35 52 19 28 1022.1 1021.6 0.0
24/07:21pm 18.0 11.3 7.4 50 5.4 S 32 52 17 28 1022.0 1021.5 0.0
24/07:00pm 19.0 11.7 7.4 47 5.9 SSE 35 44 19 24 1021.8 1021.3 0.0
24/06:30pm 20.6 13.6 6.9 41 7.0 SSE 33 43 18 23 1021.5 1021.0 0.0
24/06:00pm 21.5 14.5 6.2 37 7.7 SSE 32 43 17 23 1021.3 1020.8 0.0
24/05:30pm 22.3 15.8 6.5 36 8.1 S 30 39 16 21 1021.1 1020.6 0.0
24/05:00pm 23.1 16.7 6.8 35 8.4 SSE 30 43 16 23 1021.1 1020.6 0.0
24/04:40pm 22.9 16.4 6.6 35 8.4 SSE 30 48 16 26 1021.1 1020.6 0.0
24/04:30pm 22.6 16.1 6.4 35 8.3 S 30 39 16 21 1021.1 1020.6 0.0
24/04:00pm 23.9 17.9 7.1 34 8.8 SSW 28 41 15 22 1021.2 1020.7 0.0
24/03:30pm 22.7 16.7 6.9 36 8.2 SSW 28 43 15 23 1021.5 1021.0 0.0
24/03:00pm 23.4 17.1 7.5 36 8.3 SSW 30 44 16 24 1021.6 1021.1 0.0
24/02:30pm 22.6 16.0 7.6 38 7.9 SSW 32 44 17 24 1021.9 1021.4 0.0
24/02:00pm 22.7 16.9 8.0 39 7.7 SSW 28 41 15 22 1022.0 1021.5 0.0
24/01:30pm 23.4 18.2 8.7 39 7.9 SSW 26 44 14 24 1021.9 1021.4 0.0
24/01:00pm 23.8 19.2 9.8 41 7.7 S 24 39 13 21 1022.1 1021.6 0.0
24/12:30pm 23.0 18.3 9.4 42 7.4 SSE 24 35 13 19 1022.3 1021.8 0.0
24/12:00pm 21.5 16.7 8.7 44 6.8 SSE 24 39 13 21 1022.6 1022.1 0.0
24/11:30am 21.6 16.7 9.8 47 6.4 SSE 26 35 14 19 1022.6 1022.1 0.0
24/11:00am 20.8 15.5 9.7 49 6.0 SSE 28 39 15 21 1022.7 1022.2 0.0
24/10:30am 20.3 15.4 9.8 51 5.7 S 26 37 14 20 1022.7 1022.2 0.0
24/10:00am 19.1 13.9 10.1 56 4.8 S 28 39 15 21 1022.6 1022.1 0.0
24/09:30am 18.4 12.4 10.0 58 4.5 S 32 44 17 24 1022.5 1022.0 0.0
24/09:00am 18.1 12.6 10.5 61 4.1 S 30 43 16 23 1022.4 1021.9 0.0
24/08:30am 17.3 12.3 10.9 66 3.5 S 28 41 15 22 1022.2 1021.7 0.0
24/08:00am 16.5 12.7 11.2 71 2.9 S 22 32 12 17 1021.7 1021.2 0.0
24/07:30am 15.8 12.0 11.2 74 2.5 S 22 30 12 16 1021.5 1021.0 0.0
24/07:00am 15.4 12.0 11.2 76 2.3 S 20 28 11 15 1021.3 1020.8 0.0
24/06:30am 15.5 12.2 11.5 77 2.2 S 20 28 11 15 1021.0 1020.5 0.0
24/06:00am 15.7 12.6 11.5 76 2.3 S 19 26 10 14 1020.7 1020.2 0.0
24/05:30am 15.9 13.1 11.3 74 2.5 S 17 26 9 14 1020.4 1019.8 0.0
24/05:00am 16.2 13.0 11.4 73 2.6 S 19 24 10 13 1020.5 1020.0 0.0
24/04:30am 16.4 13.1 11.6 73 2.6 S 20 30 11 16 1020.6 1020.1 0.0
24/04:00am 16.5 13.0 12.1 75 2.4 S 22 32 12 17 1020.4 1019.8 0.0
24/03:30am 16.5 13.0 12.1 75 2.4 S 22 33 12 18 1020.2 1019.6 0.0
24/03:00am 16.7 12.1 12.3 75 2.4 S 28 37 15 20 1020.2 1019.6 0.0
24/02:30am 16.8 12.5 12.1 74 2.6 S 26 37 14 20 1020.2 1019.6 0.0
24/02:00am 16.9 13.4 12.2 74 2.6 SSE 22 32 12 17 1020.5 1020.0 0.0
24/01:30am 16.9 13.0 12.2 74 2.6 S 24 35 13 19 1020.6 1020.1 0.0
24/01:00am 16.9 13.9 12.6 76 2.4 S 20 26 11 14 1020.6 1020.1 0.0
24/12:30am 17.0 14.1 12.9 77 2.3 SSW 20 30 11 16 1020.3 1019.7 0.0
24/12:00am 17.3 14.9 12.6 74 2.6 SSW 17 24 9 13 1020.2 1019.6 0.0
 
Date/Time
EDT
Temp
°C
App
Temp
°C
Dew
Point
°C
Rel
Hum
%
Delta-T
°C
Wind Press
QNH
hPa
Press
MSL
hPa
Rain since
9am
mm
Dir  Spd
km/h
Gust
km/h
Spd
kts
Gust
kts
23/11:30pm 18.0 15.2 12.5 70 3.1 SSW 19 26 10 14 1019.9 1019.3 0.0
23/11:00pm 19.0 16.0 12.0 64 3.9 SSW 19 24 10 13 1019.9 1019.3 0.0
23/10:30pm 20.2 17.7 10.9 55 5.1 S 15 22 8 12 1019.9 1019.3 0.0
23/10:00pm 21.2 18.7 11.0 52 5.6 S 15 22 8 12 1019.7 1019.1 0.0
23/09:30pm 22.3 19.8 11.1 49 6.2 SSW 15 24 8 13 1019.3 1018.7 0.0
23/09:00pm 23.3 20.9 11.4 47 6.7 SSW 15 20 8 11 1018.5 1018.0 0.0
23/08:30pm 24.3 21.5 11.3 44 7.4 SSW 17 22 9 12 1018.0 1017.5 0.0
23/08:00pm 25.5 21.6 10.9 40 8.2 SSW 22 30 12 16 1017.4 1016.9 0.0
23/07:30pm 27.1 23.6 10.8 36 9.3 SSW 20 32 11 17 1016.9 1016.4 0.0
23/07:00pm 28.5 24.4 10.2 32 10.4 SW 22 32 12 17 1016.4 1015.9 0.0
23/06:30pm 30.5 26.4 7.7 24 12.5 WSW 19 28 10 15 1016.1 1015.6 0.0
23/06:00pm 30.9 28.2 7.4 23 12.9 WSW 11 24 6 13 1016.0 1015.5 0.0
23/05:30pm 31.3 27.0 7.1 22 13.2 WNW 19 30 10 16 1015.9 1015.4 0.0
23/05:00pm 31.2 26.3 7.0 22 13.2 W 22 32 12 17 1015.7 1015.2 0.0
23/04:30pm 30.6 28.4 7.7 24 12.6 SE 9 15 5 8 1015.7 1015.2 0.0
23/04:00pm 29.7 27.4 7.6 25 12.1 WSW 9 19 5 10 1015.9 1015.4 0.0
23/03:30pm 29.7 27.2 8.2 26 11.9 W 11 19 6 10 1016.4 1015.9 0.0
23/03:00pm 30.0 26.4 8.4 26 12.0 WSW 17 20 9 11 1016.7 1016.2 0.0
23/02:30pm 28.7 26.2 8.4 28 11.2 SSW 11 15 6 8 1016.8 1016.3 0.0
23/02:00pm 28.7 26.5 9.4 30 10.8 SW 11 22 6 12 1016.9 1016.4 0.0
23/01:30pm 28.3 25.9 8.6 29 10.9 NW 11 20 6 11 1017.0 1016.5 0.0
23/01:00pm 27.0 23.9 8.9 32 9.9 SSW 15 24 8 13 1017.2 1016.7 0.0
23/12:30pm 26.3 23.6 8.8 33 9.6 SW 13 22 7 12 1017.4 1016.9 0.0
23/12:00pm 26.5 23.8 8.9 33 9.6 SW 13 20 7 11 1017.3 1016.8 0.0
23/11:30am 25.8 23.6 9.2 35 9.1 SSW 11 22 6 12 1017.2 1016.7 0.0
23/11:00am 25.2 22.6 9.5 37 8.6 SW 13 20 7 11 1017.2 1016.7 0.0
23/10:30am 23.7 21.2 9.7 41 7.7 SSW 13 20 7 11 1017.0 1016.5 0.0
23/10:00am 22.5 19.7 10.0 45 6.8 SSW 15 20 8 11 1016.7 1016.2 0.0
23/09:30am 21.4 18.3 10.3 49 6.1 SSW 17 20 9 11 1016.5 1016.0 0.0
23/09:00am 19.6 17.6 11.4 59 4.5 SSW 13 19 7 10 1016.3 1015.8 0.0
23/08:30am 17.7 16.1 11.5 67 3.4 SW 11 17 6 9 1015.9 1015.4 0.0
23/08:00am 16.2 14.9 11.2 72 2.7 SSW 9 13 5 7 1015.3 1014.8 0.0
23/07:30am 15.4 13.6 11.0 75 2.4 SSW 11 13 6 7 1014.9 1014.4 0.0
23/07:00am 15.2 13.1 11.0 76 2.2 SSW 13 17 7 9 1014.5 1014.0 0.0
23/06:30am 14.7 13.1 10.3 75 2.3 SSW 9 11 5 6 1014.0 1013.4 0.0
23/06:00am 15.6 14.1 10.4 71 2.8 SSW 9 11 5 6 1013.4 1012.8 0.0
23/05:30am 16.1 14.2 10.6 70 2.9 SSW 11 15 6 8 1013.2 1012.6 0.0
23/05:00am 17.1 14.9 10.7 66 3.4 SW 13 17 7 9 1013.1 1012.5 0.0
23/04:30am 16.8 14.9 10.4 66 3.4 WSW 11 13 6 7 1012.7 1012.1 0.0
23/04:00am 17.7 16.1 10.1 61 4.1 WSW 9 13 5 7 1012.5 1011.9 0.0
23/03:30am 16.7 14.5 7.9 56 4.5 W 9 11 5 6 1012.4 1011.8 0.0
23/03:00am 18.0 15.4 5.9 45 6.0 W 9 13 5 7 1012.1 1011.5 0.0
23/02:30am 16.7 15.3 5.3 47 5.5 NW 2 11 1 6 1011.7 1011.1 0.0
23/02:00am 17.2 16.0 4.5 43 6.1 CALM 0 0 0 0 1011.7 1011.1 0.0
23/01:30am 18.8 16.3 3.8 37 7.1 NW 6 7 3 4 1011.7 1011.1 0.0
23/01:00am 22.8 19.3 3.4 28 9.4 NW 11 15 6 8 1011.5 1010.9 0.0
23/12:36am 22.1 17.9 3.7 30 8.9 NNE 15 41 8 22 1011.4 1010.8 0.0
23/12:30am 22.4 18.4 3.0 28 9.3 NE 13 19 7 10 1010.5 1010.0 0.0
23/12:00am 22.4 17.8 3.5 29 9.2 NE 17 20 9 11 1010.4 1009.9 0.0
 
Date/Time
EDT
Temp
°C
App
Temp
°C
Dew
Point
°C
Rel
Hum
%
Delta-T
°C
Wind Press
QNH
hPa
Press
MSL
hPa
Rain since
9am
mm
Dir  Spd
km/h
Gust
km/h
Spd
kts
Gust
kts
22/11:30pm 21.5 17.7 3.7 31 8.6 NE 13 15 7 8 1010.5 1010.0 0.0
22/11:00pm 22.1 18.4 4.7 32 8.6 NE 13 13 7 7 1010.7 1010.2 0.0
22/10:30pm 20.4 16.7 4.4 35 7.8 NNE 13 15 7 8 1010.6 1010.1 0.0
22/10:00pm 21.0 17.7 4.6 34 8.1 NNE 11 13 6 7 1010.6 1010.1 0.0
22/09:30pm 22.6 19.2 4.2 30 9.1 NNE 11 13 6 7 1010.5 1010.0 0.0
22/09:00pm 23.5 20.1 4.0 28 9.6 N 11 11 6 6 1010.2 1009.7 0.0
22/08:30pm 26.7 23.1 3.2 22 11.7 N 11 15 6 8 1009.9 1009.4 0.0
22/08:00pm 28.8 24.8 2.9 19 13.0 N 13 19 7 10 1009.7 1009.2 0.0
22/07:30pm 31.5 26.2 1.8 15 14.9 N 19 24 10 13 1009.7 1009.2 0.0
22/07:00pm 32.4 25.9 0.5 13 15.7 N 24 33 13 18 1009.7 1009.2 0.0
22/06:30pm 33.4 26.7 1.3 13 16.1 N 26 35 14 19 1009.6 1009.1 0.0
22/06:00pm 32.9 26.1 0.9 13 15.9 N 26 41 14 22 1010.1 1009.6 0.0
22/05:30pm 33.6 26.1 1.4 13 16.2 NNE 30 43 16 23 1010.3 1009.8 0.0
22/05:07pm 33.4 26.3 1.3 13 16.1 N 28 46 15 25 1010.7 1010.2 0.0
22/05:00pm 32.6 24.8 1.7 14 15.6 N 32 41 17 22 1010.7 1010.2 0.0
22/04:30pm 32.7 25.1 2.7 15 15.4 N 32 43 17 23 1010.9 1010.4 0.0
22/04:00pm 32.3 25.2 3.3 16 15.0 N 30 41 16 22 1011.5 1010.9 0.0
22/03:30pm 32.0 26.0 3.1 16 14.8 N 24 37 13 20 1012.3 1011.7 0.0
22/03:00pm 31.6 25.3 3.6 17 14.5 N 26 41 14 22 1012.8 1012.2 0.0
22/02:30pm 31.6 25.2 5.2 19 14.0 N 28 46 15 25 1013.7 1013.1 0.0
22/02:28pm 30.9 24.1 3.0 17 14.2 N 28 46 15 25 1013.7 1013.1 0.0
22/02:00pm 31.0 24.9 4.7 19 13.8 NNE 26 44 14 24 1014.1 1013.5 0.0
22/01:43pm 30.2 23.6 4.0 19 13.5 N 28 46 15 25 1014.4 1013.9 0.0
22/01:30pm 29.7 22.3 5.1 21 12.9 N 33 46 18 25 1014.4 1013.9 0.0
22/01:01pm 29.2 22.4 5.3 22 12.5 N 30 50 16 27 1014.7 1014.2 0.0
22/01:00pm 29.2 22.8 5.3 22 12.5 N 28 39 15 21 1014.9 1014.4 0.0
22/12:47pm 28.8 22.2 4.3 21 12.6 N 28 48 15 26 1015.2 1014.7 0.0
22/12:30pm 29.0 21.8 5.1 22 12.5 N 32 43 17 23 1015.4 1014.9 0.0
22/12:11pm 28.2 21.1 5.7 24 11.8 N 32 50 17 27 1015.5 1015.0 0.0
22/12:00pm 28.6 21.8 6.7 25 11.7 NNE 32 48 17 26 1015.6 1015.1 0.0
22/11:30am 26.8 20.1 7.3 29 10.4 NNE 32 43 17 23 1016.1 1015.6 0.0
22/11:00am 25.6 19.5 8.1 33 9.4 NNE 30 39 16 21 1016.5 1016.0 0.0
22/10:30am 24.3 19.1 8.7 37 8.4 NNE 26 35 14 19 1016.9 1016.4 0.0
22/10:00am 22.7 18.9 9.1 42 7.3 N 19 32 10 17 1017.1 1016.6 0.0
22/09:30am 20.4 17.1 8.1 45 6.4 NNE 15 24 8 13 1017.2 1016.7 0.0
22/09:00am 16.1 14.1 7.1 55 4.5 N 7 11 4 6 1017.3 1016.8 0.0
22/08:30am 12.9 12.2 6.9 67 2.9 CALM 0 0 0 0 1017.3 1016.8 0.0
22/08:00am 10.0 8.7 6.2 77 1.8 N 2 6 1 3 1017.2 1016.7 0.0
22/07:30am 8.2 5.9 5.5 83 1.2 N 7 7 4 4 1016.9 1016.4 0.0
22/07:00am 7.1 5.8 4.2 82 1.3 CALM 0 0 0 0 1016.6 1016.1 0.0
22/06:30am 7.9 6.9 5.5 85 1.1 CALM 0 0 0 0 1016.3 1015.8 0.0
22/06:00am 7.2 6.0 4.5 83 1.2 CALM 0 0 0 0 1016.1 1015.6 0.0
22/05:30am 8.1 7.0 4.9 80 1.4 CALM 0 0 0 0 1016.1 1015.6 0.0
22/05:00am 8.2 7.1 5.3 82 1.3 CALM 0 0 0 0 1016.2 1015.7 0.0
22/04:30am 8.3 7.2 5.2 81 1.4 CALM 0 0 0 0 1016.4 1015.9 0.0
22/04:00am 8.4 7.3 5.0 79 1.5 CALM 0 0 0 0 1016.5 1016.0 0.0
22/03:30am 9.5 7.6 5.1 74 2.0 N 4 6 2 3 1016.8 1016.3 0.0
22/03:00am 10.1 7.8 5.7 74 2.0 N 7 9 4 5 1016.9 1016.4 0.0
22/02:30am 10.7 8.6 5.7 71 2.3 N 6 7 3 4 1017.2 1016.7 0.0
22/02:00am 10.2 8.8 5.4 72 2.2 N 2 7 1 4 1017.5 1017.0 0.0
22/01:30am 10.4 9.3 5.0 69 2.5 CALM 0 0 0 0 1017.6 1017.1 0.0
22/01:00am 11.1 10.0 5.0 66 2.8 CALM 0 0 0 0 1017.8 1017.3 0.0
22/12:30am 12.4 11.3 5.3 62 3.3 CALM 0 0 0 0 1018.1 1017.6 0.0
22/12:00am 12.5 11.6 5.9 64 3.1 CALM 0 0 0 0 1018.4 1017.9 0.0
 
Date/Time
EDT
Temp
°C
App
Temp
°C
Dew
Point
°C
Rel
Hum
%
Delta-T
°C
Wind Press
QNH
hPa
Press
MSL
hPa
Rain since
9am
mm
Dir  Spd
km/h
Gust
km/h
Spd
kts
Gust
kts
21/11:30pm 11.9 10.9 5.8 66 2.9 CALM 0 6 0 3 1018.4 1017.9 0.0
21/11:00pm 11.8 9.4 5.2 64 3.1 N 7 9 4 5 1018.4 1017.9 0.0
21/10:30pm 12.6 10.0 6.0 64 3.1 N 9 9 5 5 1018.5 1018.0 0.0
21/10:00pm 13.5 11.2 5.7 59 3.7 N 7 9 4 5 1018.5 1018.0 0.0
21/09:30pm 14.9 12.6 5.7 54 4.4 N 7 13 4 7 1018.4 1017.9 0.0

Other Formats:

Comma delimited format used in spreadsheet applications
http://www.bom.gov.au/fwo/IDV60801/IDV60801.94874.axf

JavaScript Object Notation format (JSON) in row-major order
http://www.bom.gov.au/fwo/IDV60801/IDV60801.94874.json